Time;durP1;ratioP1;P1;durP2;ratioP2;P2;SDS_P1;SDS_P2;PMS_P1;PMS_P2;Temp;Humidity;BMP_temperature;BMP_pressure;BME280_temperature;BME280_humidity;BME280_pressure;Samples;Min_cycle;Max_cycle;Signal;HPM_P1;HPM_P2
2022/09/19 00:02:12;;;;;;;;;;;;;;;;;;5081663;28;964;-75
2022/09/19 00:04:38;;;;;;;;;;;;;;;;;;5080801;28;1906;-75
2022/09/19 00:07:03;;;;;;;;;;;;;;;;;;5081484;28;886;-75
2022/09/19 00:09:30;;;;;;;;;;;;;;;;;;5081702;28;850;-75
2022/09/19 00:11:55;;;;;;;;;;;;;;;;;;5081351;28;920;-75
2022/09/19 00:14:23;;;;;;;;;;;;;;;;;;5081339;28;1175;-75
2022/09/19 00:16:48;;;;;;;;;;;;;;;;;;5061754;28;1308;-75
2022/09/19 00:19:15;;;;;;;;;;;;;;;;;;5081403;28;1032;-74
2022/09/19 00:21:42;;;;;;;;;;;;;;;;;;5081131;28;886;-75
2022/09/19 00:26:55;;;;;;;;;;;;;;;;;;5081069;28;2229;-74
2022/09/19 00:29:20;;;;;;;;;;;;;;;;;;5081358;28;834;-74
2022/09/19 00:31:45;;;;;;;;;;;;;;;;;;5081230;28;996;-75
2022/09/19 00:34:11;;;;;;;;;;;;;;;;;;5080987;28;1238;-75
2022/09/19 00:36:37;;;;;;;;;;;;;;;;;;5080361;28;1004;-75
2022/09/19 00:39:03;;;;;;;;;;;;;;;;;;5081035;28;811;-75
2022/09/19 00:41:29;;;;;;;;;;;;;;;;;;5081097;28;1052;-75
2022/09/19 00:43:55;;;;;;;;;;;;;;;;;;5080754;28;1242;-75
2022/09/19 00:46:21;;;;;;;;;;;;;;;;;;5079802;28;1972;-74
2022/09/19 00:48:49;;;;;;;;;;;;;;;;;;5080880;28;902;-74
2022/09/19 00:51:31;;;;;;;;;;;;;;;;;;5081003;28;823;-74
2022/09/19 00:53:58;;;;;;;;;;;;;;;;;;5080645;28;1308;-74
2022/09/19 00:56:23;;;;;;;;;;;;;;;;;;5080177;28;1075;-75
2022/09/19 00:58:49;;;;;;;;;;;;;;;;;;5080757;28;823;-75
2022/09/19 01:01:15;;;;;;;;;;;;;;;;;;5080777;28;874;-75
2022/09/19 01:03:40;;;;;;;;;;;;;;;;;;5080648;28;1282;-75
2022/09/19 01:06:05;;;;;;;;;;;;;;;;;;5079949;28;1894;-75
2022/09/19 01:08:38;;;;;;;;;;;;;;;;;;5080612;28;976;-75
2022/09/19 01:11:18;;;;;;;;;;;;;;;;;;5080687;28;803;-74
2022/09/19 01:13:49;;;;;;;;;;;;;;;;;;5080895;28;1223;-76
2022/09/19 01:16:20;;;;;;;;;;;;;;;;;;5080045;28;996;-76
2022/09/19 01:18:53;;;;;;;;;;;;;;;;;;5080612;28;833;-76
2022/09/19 01:21:45;;;;;;;;;;;;;;;;;;5062939;28;865;-77
2022/09/19 01:24:24;;;;;;;;;;;;;;;;;;5080636;28;1277;-76
2022/09/19 01:27:00;;;;;;;;;;;;;;;;;;5088080;28;1890;-76
2022/09/19 01:29:36;;;;;;;;;;;;;;;;;;5104155;28;893;-76
2022/09/19 01:32:05;;;;;;;;;;;;;;;;;;5104558;28;901;-76
2022/09/19 01:34:33;;;;;;;;;;;;;;;;;;5103343;28;1139;-74
2022/09/19 01:37:03;;;;;;;;;;;;;;;;;;5104231;28;814;-74
2022/09/19 01:39:30;;;;;;;;;;;;;;;;;;5104251;28;873;-74
2022/09/19 01:41:57;;;;;;;;;;;;;;;;;;5104180;28;826;-74
2022/09/19 01:44:23;;;;;;;;;;;;;;;;;;5103354;28;1160;-75
2022/09/19 01:46:57;;;;;;;;;;;;;;;;;;5103615;28;1890;-74
2022/09/19 01:49:31;;;;;;;;;;;;;;;;;;5103938;28;882;-76
2022/09/19 01:52:19;;;;;;;;;;;;;;;;;;5103978;28;1035;-77
2022/09/19 01:54:51;;;;;;;;;;;;;;;;;;5102964;28;1191;-77
2022/09/19 01:57:16;;;;;;;;;;;;;;;;;;5103971;28;866;-76
2022/09/19 01:59:47;;;;;;;;;;;;;;;;;;5103734;28;904;-77
2022/09/19 02:02:28;;;;;;;;;;;;;;;;;;5103772;28;856;-77
2022/09/19 02:05:02;;;;;;;;;;;;;;;;;;5102798;28;1906;-77
2022/09/19 02:07:30;;;;;;;;;;;;;;;;;;5104109;28;812;-77
2022/09/19 02:09:55;;;;;;;;;;;;;;;;;;5103565;28;822;-77
2022/09/19 02:12:22;;;;;;;;;;;;;;;;;;5103746;28;846;-77
2022/09/19 02:14:54;;;;;;;;;;;;;;;;;;5102838;28;1164;-77
2022/09/19 02:17:24;;;;;;;;;;;;;;;;;;5103504;28;834;-77
2022/09/19 02:19:56;;;;;;;;;;;;;;;;;;5103338;28;985;-77
2022/09/19 02:22:27;;;;;;;;;;;;;;;;;;5103470;28;1011;-77
2022/09/19 02:24:56;;;;;;;;;;;;;;;;;;5102445;28;1898;-77
2022/09/19 02:27:23;;;;;;;;;;;;;;;;;;5103281;28;877;-77
2022/09/19 02:29:53;;;;;;;;;;;;;;;;;;5103251;28;1059;-77
2022/09/19 02:32:19;;;;;;;;;;;;;;;;;;5085191;28;1032;-77
2022/09/19 02:34:48;;;;;;;;;;;;;;;;;;5102398;28;1139;-77
2022/09/19 02:37:25;;;;;;;;;;;;;;;;;;5103399;28;830;-77
2022/09/19 02:40:00;;;;;;;;;;;;;;;;;;5102121;28;984;-76
2022/09/19 02:42:46;;;;;;;;;;;;;;;;;;5103171;28;881;-76
2022/09/19 02:45:17;;;;;;;;;;;;;;;;;;5084076;28;1910;-77
2022/09/19 02:48:03;;;;;;;;;;;;;;;;;;5103154;28;790;-77
2022/09/19 02:50:41;;;;;;;;;;;;;;;;;;5102936;28;837;-77
2022/09/19 02:53:09;;;;;;;;;;;;;;;;;;5102922;28;957;-77
2022/09/19 02:55:39;;;;;;;;;;;;;;;;;;5101918;28;1151;-77
2022/09/19 02:58:04;;;;;;;;;;;;;;;;;;5102922;28;818;-77
2022/09/19 03:00:32;;;;;;;;;;;;;;;;;;5102703;28;936;-77
2022/09/19 03:04:11;;;;;;;;;;;;;;;;;;5102809;28;802;-77
2022/09/19 03:05:53;;;;;;;;;;;;;;;;;;5101692;28;1905;-77
2022/09/19 03:08:22;;;;;;;;;;;;;;;;;;5102695;28;908;-77
2022/09/19 03:10:49;;;;;;;;;;;;;;;;;;5102576;28;857;-75
2022/09/19 03:13:14;;;;;;;;;;;;;;;;;;5102863;28;953;-75
2022/09/19 03:15:49;;;;;;;;;;;;;;;;;;5101997;28;1124;-75
2022/09/19 03:18:16;;;;;;;;;;;;;;;;;;5102708;28;799;-75
2022/09/19 03:20:48;;;;;;;;;;;;;;;;;;5102382;28;901;-75
2022/09/19 03:23:15;;;;;;;;;;;;;;;;;;5102544;28;810;-77
2022/09/19 03:25:40;;;;;;;;;;;;;;;;;;5101425;28;1902;-77
2022/09/19 03:28:06;;;;;;;;;;;;;;;;;;5102402;28;822;-77
2022/09/19 03:30:31;;;;;;;;;;;;;;;;;;5102252;28;833;-77
2022/09/19 03:32:59;;;;;;;;;;;;;;;;;;5102440;28;1004;-77
2022/09/19 03:35:24;;;;;;;;;;;;;;;;;;5101521;28;1096;-77
2022/09/19 03:37:50;;;;;;;;;;;;;;;;;;5102151;28;794;-75
2022/09/19 03:40:15;;;;;;;;;;;;;;;;;;5102230;28;826;-75
2022/09/19 03:42:40;;;;;;;;;;;;;;;;;;5102084;28;966;-75
2022/09/19 03:45:06;;;;;;;;;;;;;;;;;;5101406;28;1971;-75
2022/09/19 03:47:31;;;;;;;;;;;;;;;;;;5101903;28;1008;-75
2022/09/19 03:49:57;;;;;;;;;;;;;;;;;;5101998;28;900;-75
2022/09/19 03:52:23;;;;;;;;;;;;;;;;;;5101900;28;833;-75
2022/09/19 03:54:48;;;;;;;;;;;;;;;;;;5101159;28;1175;-75
2022/09/19 03:57:13;;;;;;;;;;;;;;;;;;5101789;28;1060;-75
2022/09/19 03:59:41;;;;;;;;;;;;;;;;;;5101944;28;779;-75
2022/09/19 04:02:06;;;;;;;;;;;;;;;;;;5101783;28;838;-75
2022/09/19 04:04:32;;;;;;;;;;;;;;;;;;5101205;28;1266;-75
2022/09/19 04:06:57;;;;;;;;;;;;;;;;;;5102041;28;1950;-75
2022/09/19 04:09:22;;;;;;;;;;;;;;;;;;5101648;28;993;-75
2022/09/19 04:11:47;;;;;;;;;;;;;;;;;;5101627;28;882;-75
2022/09/19 04:14:15;;;;;;;;;;;;;;;;;;5101553;28;1245;-74
2022/09/19 04:16:40;;;;;;;;;;;;;;;;;;5101216;28;861;-74
2022/09/19 04:19:10;;;;;;;;;;;;;;;;;;5101662;28;1055;-74
2022/09/19 04:21:36;;;;;;;;;;;;;;;;;;5101521;28;952;-76
2022/09/19 04:24:01;;;;;;;;;;;;;;;;;;5101443;28;1262;-75
2022/09/19 04:26:26;;;;;;;;;;;;;;;;;;5100715;28;1893;-74
2022/09/19 04:28:52;;;;;;;;;;;;;;;;;;5101497;28;918;-75
2022/09/19 04:31:17;;;;;;;;;;;;;;;;;;5101541;28;870;-75
2022/09/19 04:33:42;;;;;;;;;;;;;;;;;;5101351;28;1254;-75
2022/09/19 04:36:08;;;;;;;;;;;;;;;;;;5100752;28;926;-75
2022/09/19 04:38:33;;;;;;;;;;;;;;;;;;5101354;28;845;-75
2022/09/19 04:40:59;;;;;;;;;;;;;;;;;;5101444;28;874;-75
2022/09/19 04:43:26;;;;;;;;;;;;;;;;;;5101102;28;971;-75
2022/09/19 04:45:52;;;;;;;;;;;;;;;;;;5100580;28;1953;-75
2022/09/19 04:48:19;;;;;;;;;;;;;;;;;;5101102;28;794;-74
2022/09/19 04:50:45;;;;;;;;;;;;;;;;;;5101290;28;889;-74
2022/09/19 04:53:13;;;;;;;;;;;;;;;;;;5101073;28;843;-74
2022/09/19 04:55:38;;;;;;;;;;;;;;;;;;5100591;28;1252;-74
2022/09/19 04:58:04;;;;;;;;;;;;;;;;;;5100941;28;854;-74
2022/09/19 05:00:38;;;;;;;;;;;;;;;;;;5101195;28;916;-74
2022/09/19 05:03:12;;;;;;;;;;;;;;;;;;5103558;28;1007;-74
2022/09/19 05:05:37;;;;;;;;;;;;;;;;;;5104004;28;1914;-74
2022/09/19 05:08:04;;;;;;;;;;;;;;;;;;5104465;28;936;-75
2022/09/19 05:10:29;;;;;;;;;;;;;;;;;;5104584;28;869;-74
2022/09/19 05:12:54;;;;;;;;;;;;;;;;;;5104678;28;802;-75
2022/09/19 05:15:20;;;;;;;;;;;;;;;;;;5103817;28;1164;-75
2022/09/19 05:17:46;;;;;;;;;;;;;;;;;;5104289;28;869;-74
2022/09/19 05:20:13;;;;;;;;;;;;;;;;;;5104858;28;877;-75
2022/09/19 05:22:38;;;;;;;;;;;;;;;;;;5104334;28;853;-75
2022/09/19 05:25:04;;;;;;;;;;;;;;;;;;5103579;28;1901;-74
2022/09/19 05:27:36;;;;;;;;;;;;;;;;;;5104239;28;802;-74
2022/09/19 05:30:02;;;;;;;;;;;;;;;;;;5104146;28;894;-75
2022/09/19 05:32:27;;;;;;;;;;;;;;;;;;5104453;28;889;-74
2022/09/19 05:34:56;;;;;;;;;;;;;;;;;;5103437;28;1174;-75
2022/09/19 05:37:22;;;;;;;;;;;;;;;;;;5104255;28;825;-74
2022/09/19 05:39:48;;;;;;;;;;;;;;;;;;5103837;28;858;-75
2022/09/19 05:42:13;;;;;;;;;;;;;;;;;;5104126;28;830;-76
2022/09/19 05:44:38;;;;;;;;;;;;;;;;;;5103232;28;1269;-75
2022/09/19 05:47:03;;;;;;;;;;;;;;;;;;5103623;28;1945;-75
2022/09/19 05:49:28;;;;;;;;;;;;;;;;;;5103869;28;786;-76
2022/09/19 05:51:55;;;;;;;;;;;;;;;;;;5103831;28;794;-75
2022/09/19 05:54:20;;;;;;;;;;;;;;;;;;5111984;22;2156;-69
2022/09/19 05:56:50;;;;;;;;;;;;;;;;;;5042878;28;824;-70
2022/09/19 05:59:15;;;;;;;;;;;;;;;;;;5042499;28;893;-70
2022/09/19 06:01:40;;;;;;;;;;;;;;;;;;5043389;28;780;-71
2022/09/19 06:04:07;;;;;;;;;;;;;;;;;;5043155;28;1121;-70
2022/09/19 06:06:35;;;;;;;;;;;;;;;;;;5042505;28;1901;-71
2022/09/19 06:09:03;;;;;;;;;;;;;;;;;;5043093;28;847;-71
2022/09/19 06:11:28;;;;;;;;;;;;;;;;;;5043337;28;858;-69
2022/09/19 06:16:37;;;;;;;;;;;;;;;;;;5042439;28;645;-69
2022/09/19 06:19:02;;;;;;;;;;;;;;;;;;5043071;28;795;-69
2022/09/19 06:21:27;;;;;;;;;;;;;;;;;;5042871;28;981;-68
2022/09/19 06:23:53;;;;;;;;;;;;;;;;;;5043066;28;894;-68
2022/09/19 06:26:18;;;;;;;;;;;;;;;;;;5042105;28;1985;-69
2022/09/19 06:28:43;;;;;;;;;;;;;;;;;;5043119;28;850;-69
2022/09/19 06:31:09;;;;;;;;;;;;;;;;;;5042846;28;874;-69
2022/09/19 06:33:34;;;;;;;;;;;;;;;;;;5042910;28;795;-69
2022/09/19 06:36:00;;;;;;;;;;;;;;;;;;5042090;28;1236;-69
2022/09/19 06:38:26;;;;;;;;;;;;;;;;;;5042935;28;878;-69
2022/09/19 06:40:51;;;;;;;;;;;;;;;;;;5042756;28;819;-68
2022/09/19 06:43:16;;;;;;;;;;;;;;;;;;5042758;28;795;-69
2022/09/19 06:45:41;;;;;;;;;;;;;;;;;;5041789;28;1890;-69
2022/09/19 06:48:08;;;;;;;;;;;;;;;;;;5042648;28;886;-68
2022/09/19 06:50:33;;;;;;;;;;;;;;;;;;5042471;28;902;-69
2022/09/19 06:52:58;;;;;;;;;;;;;;;;;;5042558;28;858;-69
2022/09/19 06:55:25;;;;;;;;;;;;;;;;;;5041600;28;1247;-69
2022/09/19 06:57:58;;;;;;;;;;;;;;;;;;5042399;28;799;-69
2022/09/19 07:00:25;;;;;;;;;;;;;;;;;;5042273;28;816;-69
2022/09/19 07:02:58;;;;;;;;;;;;;;;;;;5042361;28;857;-69
2022/09/19 07:05:24;;;;;;;;;;;;;;;;;;5041407;28;1993;-69
2022/09/19 07:07:51;;;;;;;;;;;;;;;;;;5042401;28;898;-69
2022/09/19 07:10:16;;;;;;;;;;;;;;;;;;5042256;28;803;-69
2022/09/19 07:12:41;;;;;;;;;;;;;;;;;;5024387;28;1457;-69
2022/09/19 07:15:07;;;;;;;;;;;;;;;;;;5041684;28;1152;-69
2022/09/19 07:17:32;;;;;;;;;;;;;;;;;;5042021;28;775;-69
2022/09/19 07:19:57;;;;;;;;;;;;;;;;;;5042187;28;894;-69
2022/09/19 07:22:23;;;;;;;;;;;;;;;;;;5041972;28;1033;-69
2022/09/19 07:24:49;;;;;;;;;;;;;;;;;;5040955;28;1254;-69
2022/09/19 07:27:14;;;;;;;;;;;;;;;;;;5041900;28;1894;-69
2022/09/19 07:29:40;;;;;;;;;;;;;;;;;;5041931;28;1045;-69
2022/09/19 07:32:05;;;;;;;;;;;;;;;;;;5041764;28;835;-69
2022/09/19 07:34:32;;;;;;;;;;;;;;;;;;5041100;28;1116;-68
2022/09/19 07:36:57;;;;;;;;;;;;;;;;;;5041728;28;882;-69
2022/09/19 07:39:22;;;;;;;;;;;;;;;;;;5041868;28;890;-69
2022/09/19 07:41:47;;;;;;;;;;;;;;;;;;5041650;28;1032;-69
2022/09/19 07:44:12;;;;;;;;;;;;;;;;;;5041658;28;1160;-70
2022/09/19 07:47:26;;;;;;;;;;;;;;;;;;5040780;28;2023;-69
2022/09/19 07:49:23;;;;;;;;;;;;;;;;;;5041417;28;1444;-69
2022/09/19 07:51:50;;;;;;;;;;;;;;;;;;5041599;28;878;-69
2022/09/19 07:54:15;;;;;;;;;;;;;;;;;;5041398;28;1275;-69
2022/09/19 07:56:41;;;;;;;;;;;;;;;;;;5022986;28;1344;-69
2022/09/19 07:59:06;;;;;;;;;;;;;;;;;;5041439;28;874;-69
2022/09/19 08:01:31;;;;;;;;;;;;;;;;;;5041392;28;827;-69
2022/09/19 08:03:56;;;;;;;;;;;;;;;;;;5041492;28;962;-69
2022/09/19 08:06:21;;;;;;;;;;;;;;;;;;5040604;28;1898;-69
2022/09/19 08:08:46;;;;;;;;;;;;;;;;;;5041451;28;851;-69
2022/09/19 08:11:12;;;;;;;;;;;;;;;;;;5041356;28;902;-69
2022/09/19 08:13:37;;;;;;;;;;;;;;;;;;5041239;28;986;-69
2022/09/19 08:16:02;;;;;;;;;;;;;;;;;;5040756;28;1141;-69
2022/09/19 08:18:27;;;;;;;;;;;;;;;;;;5041173;28;808;-69
2022/09/19 08:20:53;;;;;;;;;;;;;;;;;;5041229;28;843;-69
2022/09/19 08:23:18;;;;;;;;;;;;;;;;;;5041148;28;807;-69
2022/09/19 08:25:46;;;;;;;;;;;;;;;;;;5040400;28;1906;-69
2022/09/19 08:28:16;;;;;;;;;;;;;;;;;;5040988;28;807;-69
2022/09/19 08:30:42;;;;;;;;;;;;;;;;;;5041012;28;811;-69
2022/09/19 08:33:07;;;;;;;;;;;;;;;;;;5041069;28;807;-69
2022/09/19 08:35:37;;;;;;;;;;;;;;;;;;5040604;28;1223;-69
2022/09/19 08:38:03;;;;;;;;;;;;;;;;;;5043337;28;842;-69
2022/09/19 08:40:40;;;;;;;;;;;;;;;;;;5044486;28;799;-69
2022/09/19 08:43:10;;;;;;;;;;;;;;;;;;5044557;28;851;-69
2022/09/19 08:45:55;;;;;;;;;;;;;;;;;;5043831;28;1886;-69
2022/09/19 08:48:24;;;;;;;;;;;;;;;;;;5044356;28;842;-69
2022/09/19 08:51:10;;;;;;;;;;;;;;;;;;5044575;28;862;-69
2022/09/19 08:53:40;;;;;;;;;;;;;;;;;;5027287;28;1270;-69
2022/09/19 08:56:05;;;;;;;;;;;;;;;;;;5043591;28;1124;-69
2022/09/19 08:58:34;;;;;;;;;;;;;;;;;;5044195;28;970;-69
2022/09/19 09:01:00;;;;;;;;;;;;;;;;;;5044374;28;818;-69
2022/09/19 09:03:38;;;;;;;;;;;;;;;;;;5026484;28;1039;-69
2022/09/19 09:06:18;;;;;;;;;;;;;;;;;;5043670;28;1973;-69
2022/09/19 09:08:46;;;;;;;;;;;;;;;;;;5044135;28;898;-69
2022/09/19 09:11:30;;;;;;;;;;;;;;;;;;5044131;28;811;-69
2022/09/19 09:14:14;;;;;;;;;;;;;;;;;;5044123;28;957;-69
2022/09/19 09:16:52;;;;;;;;;;;;;;;;;;5043300;28;889;-69
2022/09/19 09:19:36;;;;;;;;;;;;;;;;;;5043982;28;819;-69
2022/09/19 09:22:16;;;;;;;;;;;;;;;;;;5043929;28;815;-69
2022/09/19 09:24:43;;;;;;;;;;;;;;;;;;5042888;28;1148;-69
2022/09/19 09:27:18;;;;;;;;;;;;;;;;;;5043783;28;1902;-69
2022/09/19 09:29:52;;;;;;;;;;;;;;;;;;5043784;28;1040;-69
2022/09/19 09:32:26;;;;;;;;;;;;;;;;;;5044384;28;1033;-69
2022/09/19 09:34:55;;;;;;;;;;;;;;;;;;5053628;28;1156;-69
2022/09/19 09:37:26;;;;;;;;;;;;;;;;;;5050427;28;1021;-70
2022/09/19 09:40:00;;;;;;;;;;;;;;;;;;5043637;28;993;-69
2022/09/19 09:42:33;;;;;;;;;;;;;;;;;;5043745;28;913;-69
2022/09/19 09:45:01;;;;;;;;;;;;;;;;;;5042790;28;1250;-69
2022/09/19 09:47:48;;;;;;;;;;;;;;;;;;5043061;28;997;-69
2022/09/19 09:50:13;;;;;;;;;;;;;;;;;;5053020;28;909;-71
2022/09/19 09:52:47;;;;;;;;;;;;;;;;;;5031196;28;1484;-70
2022/09/19 09:58:10;;;;;;;;;;;;;;;;;;5043408;28;637;-69
2022/09/19 10:03:41;;;;;;;;;;;;;;;;;;5043430;28;688;-70
2022/09/19 10:06:12;;;;;;;;;;;;;;;;;;5042650;28;1898;-70
2022/09/19 10:08:40;;;;;;;;;;;;;;;;;;5043259;28;1013;-70
2022/09/19 10:11:11;;;;;;;;;;;;;;;;;;5043036;28;1041;-69
2022/09/19 10:13:40;;;;;;;;;;;;;;;;;;5043541;28;870;-70
2022/09/19 10:16:06;;;;;;;;;;;;;;;;;;5042379;28;1116;-70
2022/09/19 10:18:39;;;;;;;;;;;;;;;;;;5025293;28;1460;-70
2022/09/19 10:21:04;;;;;;;;;;;;;;;;;;5042889;28;890;-70
2022/09/19 10:23:30;;;;;;;;;;;;;;;;;;5043199;28;796;-70
2022/09/19 10:26:00;;;;;;;;;;;;;;;;;;5042080;28;1955;-70
2022/09/19 10:28:41;;;;;;;;;;;;;;;;;;5043004;28;1165;-70
2022/09/19 10:31:23;;;;;;;;;;;;;;;;;;5042720;28;831;-70
2022/09/19 10:33:48;;;;;;;;;;;;;;;;;;5042971;28;819;-70
2022/09/19 10:36:31;;;;;;;;;;;;;;;;;;5042121;28;1160;-70
2022/09/19 10:38:59;;;;;;;;;;;;;;;;;;5042914;28;909;-70
2022/09/19 10:41:28;;;;;;;;;;;;;;;;;;5042778;28;774;-70
2022/09/19 10:43:54;;;;;;;;;;;;;;;;;;5042761;28;807;-69
2022/09/19 10:46:36;;;;;;;;;;;;;;;;;;5041462;28;1890;-70
2022/09/19 10:49:03;;;;;;;;;;;;;;;;;;5042345;28;842;-70
2022/09/19 10:51:31;;;;;;;;;;;;;;;;;;5042677;28;803;-69
2022/09/19 10:53:56;;;;;;;;;;;;;;;;;;5042622;28;846;-69
2022/09/19 10:56:28;;;;;;;;;;;;;;;;;;5041517;28;1236;-70
2022/09/19 10:59:18;;;;;;;;;;;;;;;;;;5042231;28;1235;-70
2022/09/19 11:02:03;;;;;;;;;;;;;;;;;;5042141;28;839;-70
2022/09/19 11:04:28;;;;;;;;;;;;;;;;;;5041672;28;1282;-70
2022/09/19 11:06:57;;;;;;;;;;;;;;;;;;5042057;28;1968;-69
2022/09/19 11:09:25;;;;;;;;;;;;;;;;;;5042398;28;858;-69
2022/09/19 11:11:50;;;;;;;;;;;;;;;;;;5042229;28;807;-69
2022/09/19 11:14:16;;;;;;;;;;;;;;;;;;5042182;28;1269;-69
2022/09/19 11:17:00;;;;;;;;;;;;;;;;;;5041689;28;889;-69
2022/09/19 11:19:52;;;;;;;;;;;;;;;;;;5042151;28;823;-70
2022/09/19 11:22:23;;;;;;;;;;;;;;;;;;5041855;28;858;-70
2022/09/19 11:25:09;;;;;;;;;;;;;;;;;;5041563;28;1144;-70
2022/09/19 11:27:57;;;;;;;;;;;;;;;;;;5024440;28;1383;-70
2022/09/19 11:30:24;;;;;;;;;;;;;;;;;;5042190;28;850;-70
2022/09/19 11:32:57;;;;;;;;;;;;;;;;;;5041800;28;873;-69
2022/09/19 11:35:31;;;;;;;;;;;;;;;;;;5041371;28;1200;-69
2022/09/19 11:38:09;;;;;;;;;;;;;;;;;;5041742;28;822;-69
2022/09/19 11:40:34;;;;;;;;;;;;;;;;;;5042039;28;839;-69
2022/09/19 11:43:02;;;;;;;;;;;;;;;;;;5041629;28;894;-69
2022/09/19 11:45:32;;;;;;;;;;;;;;;;;;5041002;28;1898;-69
2022/09/19 11:48:05;;;;;;;;;;;;;;;;;;5041593;28;1124;-70
2022/09/19 11:50:49;;;;;;;;;;;;;;;;;;5041799;28;819;-70
2022/09/19 11:53:32;;;;;;;;;;;;;;;;;;5041357;28;1041;-70
2022/09/19 11:55:58;;;;;;;;;;;;;;;;;;5040820;28;1247;-69
2022/09/19 11:58:33;;;;;;;;;;;;;;;;;;5107598;22;3622;-65
2022/09/19 12:01:07;;;;;;;;;;;;;;;;;;5101980;28;1029;-66
2022/09/19 12:03:44;;;;;;;;;;;;;;;;;;5101750;28;822;-65
2022/09/19 12:06:12;;;;;;;;;;;;;;;;;;5101048;28;1909;-66
2022/09/19 12:08:59;;;;;;;;;;;;;;;;;;5101637;28;889;-65
2022/09/19 12:11:37;;;;;;;;;;;;;;;;;;5101490;28;858;-65
2022/09/19 12:14:05;;;;;;;;;;;;;;;;;;5101712;28;901;-65
2022/09/19 12:16:30;;;;;;;;;;;;;;;;;;5100936;28;1175;-65
2022/09/19 12:18:58;;;;;;;;;;;;;;;;;;5101590;28;1071;-65
2022/09/19 12:21:33;;;;;;;;;;;;;;;;;;5101484;28;914;-65
2022/09/19 12:26:58;;;;;;;;;;;;;;;;;;5101308;28;1898;-67
2022/09/19 12:29:26;;;;;;;;;;;;;;;;;;5101498;28;1055;-66
2022/09/19 12:31:58;;;;;;;;;;;;;;;;;;5101309;28;817;-66
2022/09/19 12:34:29;;;;;;;;;;;;;;;;;;5101098;28;858;-66
2022/09/19 12:36:57;;;;;;;;;;;;;;;;;;5101404;28;1336;-66
2022/09/19 12:39:35;;;;;;;;;;;;;;;;;;5101355;28;1000;-66
2022/09/19 12:42:05;;;;;;;;;;;;;;;;;;5101275;28;988;-66
2022/09/19 12:44:39;;;;;;;;;;;;;;;;;;5100774;28;861;-66
2022/09/19 12:47:12;;;;;;;;;;;;;;;;;;5101320;28;1897;-66
2022/09/19 12:49:50;;;;;;;;;;;;;;;;;;5101459;28;822;-66
2022/09/19 12:52:25;;;;;;;;;;;;;;;;;;5101164;28;870;-66
2022/09/19 12:54:57;;;;;;;;;;;;;;;;;;5100528;28;881;-66
2022/09/19 12:57:24;;;;;;;;;;;;;;;;;;5100980;28;1168;-66
2022/09/19 12:59:51;;;;;;;;;;;;;;;;;;5101139;28;890;-67
2022/09/19 13:02:24;;;;;;;;;;;;;;;;;;5101061;28;961;-67
2022/09/19 13:04:53;;;;;;;;;;;;;;;;;;5100397;28;798;-67
2022/09/19 13:07:30;;;;;;;;;;;;;;;;;;5100881;28;1914;-67
2022/09/19 13:10:02;;;;;;;;;;;;;;;;;;5100975;28;834;-67
2022/09/19 13:12:34;;;;;;;;;;;;;;;;;;5100752;28;818;-67
2022/09/19 13:15:02;;;;;;;;;;;;;;;;;;5100210;28;791;-66
2022/09/19 13:25:50;;;;;;;;;;;;;;;;;;5103511;28;1909;-66
2022/09/19 13:28:22;;;;;;;;;;;;;;;;;;5103966;28;1147;-66
2022/09/19 13:30:48;;;;;;;;;;;;;;;;;;5104419;28;821;-66
2022/09/19 13:33:34;;;;;;;;;;;;;;;;;;5104095;28;842;-66
2022/09/19 13:36:06;;;;;;;;;;;;;;;;;;5103155;28;1171;-66
2022/09/19 13:38:45;;;;;;;;;;;;;;;;;;5104003;28;1213;-66
2022/09/19 13:41:23;;;;;;;;;;;;;;;;;;5085914;28;807;-66
2022/09/19 13:43:54;;;;;;;;;;;;;;;;;;5104050;28;857;-66
2022/09/19 13:46:27;;;;;;;;;;;;;;;;;;5103234;28;1897;-66
2022/09/19 13:48:54;;;;;;;;;;;;;;;;;;5103810;28;1063;-66
2022/09/19 13:51:28;;;;;;;;;;;;;;;;;;5103964;28;1051;-66
2022/09/19 13:54:12;;;;;;;;;;;;;;;;;;5103982;28;819;-66
2022/09/19 13:56:37;;;;;;;;;;;;;;;;;;5102989;28;1163;-67
2022/09/19 13:59:26;;;;;;;;;;;;;;;;;;5102424;28;1160;-66
2022/09/19 14:01:54;;;;;;;;;;;;;;;;;;5095440;28;1127;-66
2022/09/19 14:07:04;;;;;;;;;;;;;;;;;;5103728;28;1905;-66
2022/09/19 14:09:35;;;;;;;;;;;;;;;;;;5103445;28;806;-66
2022/09/19 14:12:01;;;;;;;;;;;;;;;;;;5103598;28;842;-66
2022/09/19 14:14:40;;;;;;;;;;;;;;;;;;5102912;28;731;-67
2022/09/19 14:17:33;;;;;;;;;;;;;;;;;;5103561;28;1179;-67
2022/09/19 14:20:05;;;;;;;;;;;;;;;;;;5083427;28;1778;-66
2022/09/19 14:22:34;;;;;;;;;;;;;;;;;;5103335;28;904;-67
2022/09/19 14:25:08;;;;;;;;;;;;;;;;;;5102540;28;825;-67
2022/09/19 14:27:45;;;;;;;;;;;;;;;;;;5103253;28;1956;-66
2022/09/19 14:30:29;;;;;;;;;;;;;;;;;;5103293;28;1012;-66
2022/09/19 14:33:07;;;;;;;;;;;;;;;;;;5103296;28;925;-66
2022/09/19 14:35:34;;;;;;;;;;;;;;;;;;5101265;28;802;-66
2022/09/19 14:38:18;;;;;;;;;;;;;;;;;;5103172;28;1166;-66
2022/09/19 14:40:44;;;;;;;;;;;;;;;;;;5103327;28;814;-66
2022/09/19 14:43:28;;;;;;;;;;;;;;;;;;5102921;28;980;-66
2022/09/19 14:46:01;;;;;;;;;;;;;;;;;;5083901;28;1959;-66
2022/09/19 14:48:36;;;;;;;;;;;;;;;;;;5103069;28;1286;-67
2022/09/19 14:51:12;;;;;;;;;;;;;;;;;;5102906;28;1066;-67
2022/09/19 14:53:39;;;;;;;;;;;;;;;;;;5101677;28;913;-67
2022/09/19 14:56:10;;;;;;;;;;;;;;;;;;5101040;28;1000;-67
2022/09/19 14:58:36;;;;;;;;;;;;;;;;;;5102834;28;941;-66
2022/09/19 15:01:06;;;;;;;;;;;;;;;;;;5102869;28;825;-66
2022/09/19 15:03:50;;;;;;;;;;;;;;;;;;5102697;28;952;-66
2022/09/19 15:06:16;;;;;;;;;;;;;;;;;;5101934;28;1948;-66
2022/09/19 15:08:47;;;;;;;;;;;;;;;;;;5102825;28;850;-66
2022/09/19 15:11:12;;;;;;;;;;;;;;;;;;5102484;28;911;-67
2022/09/19 15:13:44;;;;;;;;;;;;;;;;;;5102529;28;1173;-67
2022/09/19 15:16:09;;;;;;;;;;;;;;;;;;5101651;28;1187;-67
2022/09/19 15:18:35;;;;;;;;;;;;;;;;;;5101269;28;826;-66
2022/09/19 15:21:01;;;;;;;;;;;;;;;;;;5102465;28;904;-67
2022/09/19 15:23:27;;;;;;;;;;;;;;;;;;5102463;28;850;-67
2022/09/19 15:25:58;;;;;;;;;;;;;;;;;;5101584;28;1902;-67
2022/09/19 15:28:26;;;;;;;;;;;;;;;;;;5102330;28;1235;-67
2022/09/19 15:30:55;;;;;;;;;;;;;;;;;;5102213;28;841;-66
2022/09/19 15:33:21;;;;;;;;;;;;;;;;;;5102254;28;885;-66
2022/09/19 15:35:47;;;;;;;;;;;;;;;;;;5101525;28;846;-66
2022/09/19 15:38:16;;;;;;;;;;;;;;;;;;5102310;28;1226;-66
2022/09/19 15:40:41;;;;;;;;;;;;;;;;;;5102048;28;896;-66
2022/09/19 15:43:06;;;;;;;;;;;;;;;;;;5102043;28;1052;-66
2022/09/19 15:45:39;;;;;;;;;;;;;;;;;;5100865;28;1941;-66
2022/09/19 15:48:10;;;;;;;;;;;;;;;;;;5101828;28;1152;-66
2022/09/19 15:50:42;;;;;;;;;;;;;;;;;;5102242;28;854;-66
2022/09/19 15:53:34;;;;;;;;;;;;;;;;;;5107778;28;977;-66
2022/09/19 15:56:01;;;;;;;;;;;;;;;;;;5101078;28;1260;-66
2022/09/19 15:58:33;;;;;;;;;;;;;;;;;;5101787;28;1167;-66
2022/09/19 16:00:58;;;;;;;;;;;;;;;;;;5101783;28;826;-66
2022/09/19 16:03:23;;;;;;;;;;;;;;;;;;5101718;28;890;-66
2022/09/19 16:08:57;;;;;;;;;;;;;;;;;;5101314;28;1972;-66
2022/09/19 16:08:58;;;;;;;;;;;;;;;;;;5101651;28;901;-66
2022/09/19 16:11:43;;;;;;;;;;;;;;;;;;5101569;28;826;-64
2022/09/19 16:14:14;;;;;;;;;;;;;;;;;;5101515;28;837;-64
2022/09/19 16:16:39;;;;;;;;;;;;;;;;;;5101692;28;1191;-64
2022/09/19 16:19:04;;;;;;;;;;;;;;;;;;5107468;28;972;-66
2022/09/19 16:21:42;;;;;;;;;;;;;;;;;;5102403;28;861;-66
2022/09/19 16:24:13;;;;;;;;;;;;;;;;;;5101470;28;829;-66
2022/09/19 16:26:38;;;;;;;;;;;;;;;;;;5100602;28;1894;-66
2022/09/19 16:29:04;;;;;;;;;;;;;;;;;;5101475;28;1035;-67
2022/09/19 16:31:35;;;;;;;;;;;;;;;;;;5101482;28;790;-66
2022/09/19 16:34:19;;;;;;;;;;;;;;;;;;5101341;28;854;-66
2022/09/19 16:36:45;;;;;;;;;;;;;;;;;;5100603;28;1175;-66
2022/09/19 16:39:10;;;;;;;;;;;;;;;;;;5101444;28;783;-66
2022/09/19 16:41:43;;;;;;;;;;;;;;;;;;5101290;28;996;-65
2022/09/19 16:44:17;;;;;;;;;;;;;;;;;;5101235;28;810;-65
2022/09/19 16:46:42;;;;;;;;;;;;;;;;;;5100519;28;1894;-65
2022/09/19 16:49:08;;;;;;;;;;;;;;;;;;5101131;28;937;-65
2022/09/19 16:51:33;;;;;;;;;;;;;;;;;;5101231;28;972;-65
2022/09/19 16:54:00;;;;;;;;;;;;;;;;;;5100970;28;988;-65
2022/09/19 16:56:26;;;;;;;;;;;;;;;;;;5100293;28;1238;-66
2022/09/19 16:58:51;;;;;;;;;;;;;;;;;;5103475;28;826;-65
2022/09/19 17:01:16;;;;;;;;;;;;;;;;;;5104803;28;985;-65
2022/09/19 17:03:41;;;;;;;;;;;;;;;;;;5104590;28;929;-65
2022/09/19 17:06:11;;;;;;;;;;;;;;;;;;5104018;28;1901;-65
2022/09/19 17:08:36;;;;;;;;;;;;;;;;;;5104548;28;873;-65
2022/09/19 17:11:02;;;;;;;;;;;;;;;;;;5104560;28;976;-65
2022/09/19 17:13:27;;;;;;;;;;;;;;;;;;5104481;28;1003;-65
2022/09/19 17:15:57;;;;;;;;;;;;;;;;;;5103628;28;890;-65
2022/09/19 17:18:24;;;;;;;;;;;;;;;;;;5104359;28;1160;-65
2022/09/19 17:20:49;;;;;;;;;;;;;;;;;;5104413;28;885;-65
2022/09/19 17:23:15;;;;;;;;;;;;;;;;;;5104492;28;1055;-65
2022/09/19 17:25:46;;;;;;;;;;;;;;;;;;5103582;28;1897;-65
2022/09/19 17:28:13;;;;;;;;;;;;;;;;;;5104111;28;1146;-65
2022/09/19 17:30:38;;;;;;;;;;;;;;;;;;5104349;28;910;-65
2022/09/19 17:33:04;;;;;;;;;;;;;;;;;;5104168;28;929;-67
2022/09/19 17:35:29;;;;;;;;;;;;;;;;;;5085528;28;945;-65
2022/09/19 17:37:54;;;;;;;;;;;;;;;;;;5103997;28;1209;-65
2022/09/19 17:40:20;;;;;;;;;;;;;;;;;;5102813;28;1432;-65
2022/09/19 17:42:49;;;;;;;;;;;;;;;;;;5104084;28;827;-65
2022/09/19 17:45:14;;;;;;;;;;;;;;;;;;5103200;28;900;-65
2022/09/19 17:47:39;;;;;;;;;;;;;;;;;;5103922;28;1910;-65
2022/09/19 17:50:05;;;;;;;;;;;;;;;;;;5103816;28;936;-65
2022/09/19 17:52:31;;;;;;;;;;;;;;;;;;5104163;28;966;-65
2022/09/19 17:54:57;;;;;;;;;;;;;;;;;;5103172;28;873;-65
2022/09/19 17:59:51;;;;;;;;;;;;;;;;;;5061626;28;1989;-70